sensor_id;sensor_type;location;lat;lon;timestamp;P1;durP1;ratioP1;P2;durP2;ratioP2
19189;SDS011;9727;50.200;19.038;2022-09-09T00:00:47;37.10;;;16.97;;
19189;SDS011;9727;50.200;19.038;2022-09-09T00:03:16;41.30;;;17.67;;
19189;SDS011;9727;50.200;19.038;2022-09-09T00:05:44;37.53;;;17.70;;
19189;SDS011;9727;50.200;19.038;2022-09-09T00:08:18;42.03;;;18.40;;
19189;SDS011;9727;50.200;19.038;2022-09-09T00:10:45;45.33;;;19.53;;
19189;SDS011;9727;50.200;19.038;2022-09-09T00:13:18;51.63;;;20.30;;
19189;SDS011;9727;50.200;19.038;2022-09-09T00:15:46;52.80;;;21.20;;
19189;SDS011;9727;50.200;19.038;2022-09-09T00:18:18;57.10;;;20.70;;
19189;SDS011;9727;50.200;19.038;2022-09-09T00:20:49;59.43;;;20.77;;
19189;SDS011;9727;50.200;19.038;2022-09-09T00:23:23;50.67;;;21.00;;
19189;SDS011;9727;50.200;19.038;2022-09-09T00:25:52;65.77;;;22.67;;
19189;SDS011;9727;50.200;19.038;2022-09-09T00:28:22;57.07;;;21.87;;
19189;SDS011;9727;50.200;19.038;2022-09-09T00:30:48;76.70;;;24.63;;
19189;SDS011;9727;50.200;19.038;2022-09-09T00:33:16;62.70;;;23.47;;
19189;SDS011;9727;50.200;19.038;2022-09-09T00:35:44;57.10;;;22.80;;
19189;SDS011;9727;50.200;19.038;2022-09-09T00:38:14;58.87;;;23.63;;
19189;SDS011;9727;50.200;19.038;2022-09-09T00:40:46;64.67;;;24.47;;
19189;SDS011;9727;50.200;19.038;2022-09-09T00:43:21;63.07;;;22.53;;
19189;SDS011;9727;50.200;19.038;2022-09-09T00:45:53;55.53;;;22.83;;
19189;SDS011;9727;50.200;19.038;2022-09-09T00:48:21;51.27;;;22.37;;
19189;SDS011;9727;50.200;19.038;2022-09-09T00:50:49;51.03;;;23.13;;
19189;SDS011;9727;50.200;19.038;2022-09-09T00:53:29;55.33;;;23.20;;
19189;SDS011;9727;50.200;19.038;2022-09-09T00:56:13;62.83;;;23.57;;
19189;SDS011;9727;50.200;19.038;2022-09-09T00:58:42;56.73;;;22.07;;
19189;SDS011;9727;50.200;19.038;2022-09-09T01:01:09;54.93;;;23.13;;
19189;SDS011;9727;50.200;19.038;2022-09-09T01:03:38;57.77;;;22.90;;
19189;SDS011;9727;50.200;19.038;2022-09-09T01:06:13;54.20;;;23.07;;
19189;SDS011;9727;50.200;19.038;2022-09-09T01:11:43;52.73;;;21.63;;
19189;SDS011;9727;50.200;19.038;2022-09-09T01:14:22;46.33;;;22.13;;
19189;SDS011;9727;50.200;19.038;2022-09-09T01:16:51;48.43;;;20.33;;
19189;SDS011;9727;50.200;19.038;2022-09-09T01:19:24;48.00;;;21.10;;
19189;SDS011;9727;50.200;19.038;2022-09-09T01:21:56;45.03;;;19.80;;
19189;SDS011;9727;50.200;19.038;2022-09-09T01:24:30;54.77;;;21.63;;
19189;SDS011;9727;50.200;19.038;2022-09-09T01:27:01;54.13;;;21.73;;
19189;SDS011;9727;50.200;19.038;2022-09-09T01:29:28;51.33;;;22.40;;
19189;SDS011;9727;50.200;19.038;2022-09-09T01:31:55;46.87;;;21.67;;
19189;SDS011;9727;50.200;19.038;2022-09-09T01:34:23;54.03;;;21.70;;
19189;SDS011;9727;50.200;19.038;2022-09-09T01:36:53;52.10;;;21.67;;
19189;SDS011;9727;50.200;19.038;2022-09-09T01:39:22;57.33;;;23.07;;
19189;SDS011;9727;50.200;19.038;2022-09-09T01:41:49;54.13;;;21.50;;
19189;SDS011;9727;50.200;19.038;2022-09-09T01:44:17;46.67;;;20.70;;
19189;SDS011;9727;50.200;19.038;2022-09-09T01:46:45;45.27;;;20.23;;
19189;SDS011;9727;50.200;19.038;2022-09-09T01:49:12;40.03;;;19.43;;
19189;SDS011;9727;50.200;19.038;2022-09-09T01:51:39;47.47;;;20.20;;
19189;SDS011;9727;50.200;19.038;2022-09-09T01:54:07;44.50;;;19.40;;
19189;SDS011;9727;50.200;19.038;2022-09-09T01:56:36;39.40;;;18.20;;
19189;SDS011;9727;50.200;19.038;2022-09-09T01:59:14;43.27;;;19.50;;
19189;SDS011;9727;50.200;19.038;2022-09-09T02:01:49;43.63;;;18.50;;
19189;SDS011;9727;50.200;19.038;2022-09-09T02:04:23;37.30;;;18.40;;
19189;SDS011;9727;50.200;19.038;2022-09-09T02:06:51;39.50;;;18.30;;
19189;SDS011;9727;50.200;19.038;2022-09-09T02:09:20;41.53;;;18.00;;
19189;SDS011;9727;50.200;19.038;2022-09-09T02:11:48;41.60;;;18.20;;
19189;SDS011;9727;50.200;19.038;2022-09-09T02:14:17;40.90;;;19.27;;
19189;SDS011;9727;50.200;19.038;2022-09-09T02:16:49;41.33;;;19.97;;
19189;SDS011;9727;50.200;19.038;2022-09-09T02:19:18;39.90;;;18.60;;
19189;SDS011;9727;50.200;19.038;2022-09-09T02:21:50;36.70;;;18.23;;
19189;SDS011;9727;50.200;19.038;2022-09-09T02:24:18;39.43;;;18.93;;
19189;SDS011;9727;50.200;19.038;2022-09-09T02:26:45;40.93;;;18.83;;
19189;SDS011;9727;50.200;19.038;2022-09-09T02:29:14;39.47;;;18.40;;
19189;SDS011;9727;50.200;19.038;2022-09-09T02:31:42;32.93;;;17.20;;
19189;SDS011;9727;50.200;19.038;2022-09-09T02:34:12;37.00;;;17.53;;
19189;SDS011;9727;50.200;19.038;2022-09-09T02:36:42;35.80;;;17.60;;
19189;SDS011;9727;50.200;19.038;2022-09-09T02:39:10;38.80;;;17.20;;
19189;SDS011;9727;50.200;19.038;2022-09-09T02:41:41;32.23;;;16.97;;
19189;SDS011;9727;50.200;19.038;2022-09-09T02:44:09;34.70;;;16.97;;
19189;SDS011;9727;50.200;19.038;2022-09-09T02:46:44;35.63;;;17.60;;
19189;SDS011;9727;50.200;19.038;2022-09-09T02:49:18;37.80;;;18.63;;
19189;SDS011;9727;50.200;19.038;2022-09-09T02:51:48;39.37;;;18.20;;
19189;SDS011;9727;50.200;19.038;2022-09-09T02:54:20;41.23;;;18.53;;
19189;SDS011;9727;50.200;19.038;2022-09-09T02:56:49;37.00;;;18.03;;
19189;SDS011;9727;50.200;19.038;2022-09-09T02:59:19;39.57;;;19.73;;
19189;SDS011;9727;50.200;19.038;2022-09-09T03:01:45;39.27;;;18.73;;
19189;SDS011;9727;50.200;19.038;2022-09-09T03:04:12;37.37;;;19.00;;
19189;SDS011;9727;50.200;19.038;2022-09-09T03:06:40;40.83;;;18.93;;
19189;SDS011;9727;50.200;19.038;2022-09-09T03:09:21;40.00;;;19.83;;
19189;SDS011;9727;50.200;19.038;2022-09-09T03:11:47;33.90;;;17.80;;
19189;SDS011;9727;50.200;19.038;2022-09-09T03:14:20;32.50;;;18.10;;
19189;SDS011;9727;50.200;19.038;2022-09-09T03:16:49;34.33;;;18.07;;
19189;SDS011;9727;50.200;19.038;2022-09-09T03:19:16;29.70;;;17.47;;
19189;SDS011;9727;50.200;19.038;2022-09-09T03:21:45;29.43;;;17.43;;
19189;SDS011;9727;50.200;19.038;2022-09-09T03:24:12;28.57;;;17.47;;
19189;SDS011;9727;50.200;19.038;2022-09-09T03:26:39;32.10;;;18.47;;
19189;SDS011;9727;50.200;19.038;2022-09-09T03:29:06;34.03;;;18.03;;
19189;SDS011;9727;50.200;19.038;2022-09-09T03:31:33;36.33;;;19.87;;
19189;SDS011;9727;50.200;19.038;2022-09-09T03:34:00;40.33;;;18.77;;
19189;SDS011;9727;50.200;19.038;2022-09-09T03:36:27;41.73;;;20.57;;
19189;SDS011;9727;50.200;19.038;2022-09-09T03:39:04;38.43;;;19.87;;
19189;SDS011;9727;50.200;19.038;2022-09-09T03:41:31;31.70;;;18.40;;
19189;SDS011;9727;50.200;19.038;2022-09-09T03:43:57;31.73;;;18.37;;
19189;SDS011;9727;50.200;19.038;2022-09-09T03:46:24;39.03;;;20.13;;
19189;SDS011;9727;50.200;19.038;2022-09-09T03:48:52;37.53;;;18.67;;
19189;SDS011;9727;50.200;19.038;2022-09-09T03:51:19;30.43;;;18.83;;
19189;SDS011;9727;50.200;19.038;2022-09-09T03:53:46;31.97;;;18.60;;
19189;SDS011;9727;50.200;19.038;2022-09-09T03:56:17;33.47;;;18.30;;
19189;SDS011;9727;50.200;19.038;2022-09-09T03:58:46;32.57;;;18.37;;
19189;SDS011;9727;50.200;19.038;2022-09-09T04:01:13;32.63;;;18.53;;
19189;SDS011;9727;50.200;19.038;2022-09-09T04:03:52;36.67;;;19.13;;
19189;SDS011;9727;50.200;19.038;2022-09-09T04:06:20;38.47;;;18.17;;
19189;SDS011;9727;50.200;19.038;2022-09-09T04:08:46;37.03;;;19.97;;
19189;SDS011;9727;50.200;19.038;2022-09-09T04:11:16;42.07;;;20.87;;
19189;SDS011;9727;50.200;19.038;2022-09-09T04:13:43;36.83;;;17.83;;
19189;SDS011;9727;50.200;19.038;2022-09-09T04:16:11;34.27;;;19.97;;
19189;SDS011;9727;50.200;19.038;2022-09-09T04:18:40;39.20;;;20.37;;
19189;SDS011;9727;50.200;19.038;2022-09-09T04:21:07;42.07;;;21.23;;
19189;SDS011;9727;50.200;19.038;2022-09-09T04:23:35;53.60;;;24.63;;
19189;SDS011;9727;50.200;19.038;2022-09-09T04:26:09;60.77;;;26.53;;
19189;SDS011;9727;50.200;19.038;2022-09-09T04:28:37;66.13;;;27.37;;
19189;SDS011;9727;50.200;19.038;2022-09-09T04:31:04;67.73;;;26.37;;
19189;SDS011;9727;50.200;19.038;2022-09-09T04:33:31;53.43;;;25.27;;
19189;SDS011;9727;50.200;19.038;2022-09-09T04:35:57;64.93;;;26.40;;
19189;SDS011;9727;50.200;19.038;2022-09-09T04:38:24;80.90;;;29.03;;
19189;SDS011;9727;50.200;19.038;2022-09-09T04:40:51;89.47;;;30.40;;
19189;SDS011;9727;50.200;19.038;2022-09-09T04:43:19;91.50;;;29.93;;
19189;SDS011;9727;50.200;19.038;2022-09-09T04:45:48;92.27;;;30.57;;
19189;SDS011;9727;50.200;19.038;2022-09-09T04:48:15;76.77;;;29.23;;
19189;SDS011;9727;50.200;19.038;2022-09-09T04:50:42;83.57;;;32.20;;
19189;SDS011;9727;50.200;19.038;2022-09-09T04:53:09;80.73;;;29.53;;
19189;SDS011;9727;50.200;19.038;2022-09-09T04:55:35;79.00;;;29.83;;
19189;SDS011;9727;50.200;19.038;2022-09-09T04:58:03;80.87;;;30.30;;
19189;SDS011;9727;50.200;19.038;2022-09-09T05:00:30;78.43;;;31.07;;
19189;SDS011;9727;50.200;19.038;2022-09-09T05:02:57;74.87;;;31.13;;
19189;SDS011;9727;50.200;19.038;2022-09-09T05:05:24;80.20;;;29.27;;
19189;SDS011;9727;50.200;19.038;2022-09-09T05:07:51;83.27;;;29.33;;
19189;SDS011;9727;50.200;19.038;2022-09-09T05:10:18;80.90;;;29.23;;
19189;SDS011;9727;50.200;19.038;2022-09-09T05:12:51;91.77;;;30.90;;
19189;SDS011;9727;50.200;19.038;2022-09-09T05:15:18;80.00;;;29.37;;
19189;SDS011;9727;50.200;19.038;2022-09-09T05:17:46;74.93;;;28.27;;
19189;SDS011;9727;50.200;19.038;2022-09-09T05:20:16;76.80;;;27.10;;
19189;SDS011;9727;50.200;19.038;2022-09-09T05:22:42;59.50;;;25.47;;
19189;SDS011;9727;50.200;19.038;2022-09-09T05:25:09;48.07;;;24.50;;
19189;SDS011;9727;50.200;19.038;2022-09-09T05:27:35;47.00;;;24.43;;
19189;SDS011;9727;50.200;19.038;2022-09-09T05:30:03;43.17;;;22.67;;
19189;SDS011;9727;50.200;19.038;2022-09-09T05:32:29;40.90;;;21.10;;
19189;SDS011;9727;50.200;19.038;2022-09-09T05:34:57;39.53;;;21.60;;
19189;SDS011;9727;50.200;19.038;2022-09-09T05:37:25;39.57;;;20.27;;
19189;SDS011;9727;50.200;19.038;2022-09-09T05:39:52;32.90;;;20.20;;
19189;SDS011;9727;50.200;19.038;2022-09-09T05:42:18;35.20;;;19.97;;
19189;SDS011;9727;50.200;19.038;2022-09-09T05:44:45;37.13;;;20.67;;
19189;SDS011;9727;50.200;19.038;2022-09-09T05:47:12;32.33;;;19.13;;
19189;SDS011;9727;50.200;19.038;2022-09-09T05:49:40;39.20;;;20.43;;
19189;SDS011;9727;50.200;19.038;2022-09-09T05:52:06;33.90;;;19.60;;
19189;SDS011;9727;50.200;19.038;2022-09-09T05:54:35;34.77;;;19.73;;
19189;SDS011;9727;50.200;19.038;2022-09-09T05:57:03;36.63;;;20.40;;
19189;SDS011;9727;50.200;19.038;2022-09-09T05:59:29;38.33;;;20.40;;
19189;SDS011;9727;50.200;19.038;2022-09-09T06:01:57;41.17;;;20.80;;
19189;SDS011;9727;50.200;19.038;2022-09-09T06:04:24;46.20;;;23.77;;
19189;SDS011;9727;50.200;19.038;2022-09-09T06:06:51;40.27;;;22.37;;
19189;SDS011;9727;50.200;19.038;2022-09-09T06:09:17;43.03;;;21.67;;
19189;SDS011;9727;50.200;19.038;2022-09-09T06:11:45;37.07;;;21.63;;
19189;SDS011;9727;50.200;19.038;2022-09-09T06:14:12;42.13;;;21.97;;
19189;SDS011;9727;50.200;19.038;2022-09-09T06:16:39;48.33;;;24.17;;
19189;SDS011;9727;50.200;19.038;2022-09-09T06:19:09;42.97;;;23.27;;
19189;SDS011;9727;50.200;19.038;2022-09-09T06:21:37;41.13;;;23.97;;
19189;SDS011;9727;50.200;19.038;2022-09-09T06:24:05;40.47;;;23.00;;
19189;SDS011;9727;50.200;19.038;2022-09-09T06:26:32;40.13;;;21.60;;
19189;SDS011;9727;50.200;19.038;2022-09-09T06:29:01;43.80;;;23.33;;
19189;SDS011;9727;50.200;19.038;2022-09-09T06:31:29;33.90;;;20.80;;
19189;SDS011;9727;50.200;19.038;2022-09-09T06:33:56;54.83;;;22.40;;
19189;SDS011;9727;50.200;19.038;2022-09-09T06:36:24;36.20;;;20.00;;
19189;SDS011;9727;50.200;19.038;2022-09-09T06:38:51;39.70;;;21.00;;
19189;SDS011;9727;50.200;19.038;2022-09-09T06:41:18;44.00;;;21.37;;
19189;SDS011;9727;50.200;19.038;2022-09-09T06:43:45;44.47;;;21.70;;
19189;SDS011;9727;50.200;19.038;2022-09-09T06:46:14;38.47;;;19.60;;
19189;SDS011;9727;50.200;19.038;2022-09-09T06:48:41;39.50;;;20.23;;
19189;SDS011;9727;50.200;19.038;2022-09-09T06:51:10;35.10;;;20.37;;
19189;SDS011;9727;50.200;19.038;2022-09-09T06:53:46;36.90;;;20.33;;
19189;SDS011;9727;50.200;19.038;2022-09-09T06:56:19;34.83;;;19.37;;
19189;SDS011;9727;50.200;19.038;2022-09-09T06:58:47;33.60;;;19.33;;
19189;SDS011;9727;50.200;19.038;2022-09-09T07:01:16;42.77;;;20.80;;
19189;SDS011;9727;50.200;19.038;2022-09-09T07:03:45;39.13;;;20.43;;
19189;SDS011;9727;50.200;19.038;2022-09-09T07:06:13;39.07;;;20.53;;
19189;SDS011;9727;50.200;19.038;2022-09-09T07:08:42;34.23;;;18.67;;
19189;SDS011;9727;50.200;19.038;2022-09-09T07:11:08;38.97;;;20.57;;
19189;SDS011;9727;50.200;19.038;2022-09-09T07:13:36;31.90;;;17.17;;
19189;SDS011;9727;50.200;19.038;2022-09-09T07:16:07;29.73;;;17.73;;
19189;SDS011;9727;50.200;19.038;2022-09-09T07:18:35;34.27;;;18.77;;
19189;SDS011;9727;50.200;19.038;2022-09-09T07:21:02;36.40;;;17.60;;
19189;SDS011;9727;50.200;19.038;2022-09-09T07:23:29;29.00;;;17.00;;
19189;SDS011;9727;50.200;19.038;2022-09-09T07:25:56;28.57;;;16.23;;
19189;SDS011;9727;50.200;19.038;2022-09-09T07:28:24;25.13;;;15.53;;
19189;SDS011;9727;50.200;19.038;2022-09-09T07:30:54;23.37;;;14.03;;
19189;SDS011;9727;50.200;19.038;2022-09-09T07:33:22;21.67;;;16.13;;
19189;SDS011;9727;50.200;19.038;2022-09-09T07:35:50;28.60;;;16.73;;
19189;SDS011;9727;50.200;19.038;2022-09-09T07:38:18;23.70;;;15.23;;
19189;SDS011;9727;50.200;19.038;2022-09-09T07:40:44;23.73;;;15.70;;
19189;SDS011;9727;50.200;19.038;2022-09-09T07:43:12;23.77;;;15.10;;
19189;SDS011;9727;50.200;19.038;2022-09-09T07:45:39;26.17;;;16.67;;
19189;SDS011;9727;50.200;19.038;2022-09-09T07:48:07;29.00;;;16.83;;
19189;SDS011;9727;50.200;19.038;2022-09-09T07:50:34;27.40;;;14.87;;
19189;SDS011;9727;50.200;19.038;2022-09-09T07:53:03;20.13;;;14.90;;
19189;SDS011;9727;50.200;19.038;2022-09-09T07:55:31;21.87;;;14.40;;
19189;SDS011;9727;50.200;19.038;2022-09-09T07:57:57;21.50;;;14.27;;
19189;SDS011;9727;50.200;19.038;2022-09-09T08:00:24;18.50;;;13.37;;
19189;SDS011;9727;50.200;19.038;2022-09-09T08:02:52;23.97;;;14.37;;
19189;SDS011;9727;50.200;19.038;2022-09-09T08:05:20;24.63;;;15.57;;
19189;SDS011;9727;50.200;19.038;2022-09-09T08:07:47;18.20;;;13.40;;
19189;SDS011;9727;50.200;19.038;2022-09-09T08:10:16;20.47;;;14.67;;
19189;SDS011;9727;50.200;19.038;2022-09-09T08:12:43;19.90;;;13.67;;
19189;SDS011;9727;50.200;19.038;2022-09-09T08:15:10;15.27;;;12.00;;
19189;SDS011;9727;50.200;19.038;2022-09-09T08:17:39;19.67;;;12.13;;
19189;SDS011;9727;50.200;19.038;2022-09-09T08:20:06;15.52;;;11.98;;
19189;SDS011;9727;50.200;19.038;2022-09-09T08:22:32;11.83;;;10.63;;
19189;SDS011;9727;50.200;19.038;2022-09-09T08:24:59;10.82;;;8.57;;
19189;SDS011;9727;50.200;19.038;2022-09-09T08:27:28;9.02;;;7.80;;
19189;SDS011;9727;50.200;19.038;2022-09-09T08:29:55;8.30;;;7.43;;
19189;SDS011;9727;50.200;19.038;2022-09-09T08:32:22;9.57;;;7.50;;
19189;SDS011;9727;50.200;19.038;2022-09-09T08:34:48;9.07;;;7.00;;
19189;SDS011;9727;50.200;19.038;2022-09-09T08:37:16;8.23;;;7.15;;
19189;SDS011;9727;50.200;19.038;2022-09-09T08:39:42;8.43;;;5.90;;
19189;SDS011;9727;50.200;19.038;2022-09-09T08:42:33;7.20;;;5.75;;
19189;SDS011;9727;50.200;19.038;2022-09-09T08:45:05;6.63;;;5.25;;
19189;SDS011;9727;50.200;19.038;2022-09-09T08:47:39;5.35;;;4.35;;
19189;SDS011;9727;50.200;19.038;2022-09-09T08:50:13;6.28;;;4.13;;
19189;SDS011;9727;50.200;19.038;2022-09-09T08:52:49;5.72;;;4.53;;
19189;SDS011;9727;50.200;19.038;2022-09-09T08:55:20;8.02;;;4.07;;
19189;SDS011;9727;50.200;19.038;2022-09-09T08:57:51;5.45;;;4.50;;
19189;SDS011;9727;50.200;19.038;2022-09-09T09:00:18;6.80;;;4.45;;
19189;SDS011;9727;50.200;19.038;2022-09-09T09:02:48;8.15;;;4.50;;
19189;SDS011;9727;50.200;19.038;2022-09-09T09:05:18;4.47;;;3.88;;
19189;SDS011;9727;50.200;19.038;2022-09-09T09:07:49;6.00;;;3.60;;
19189;SDS011;9727;50.200;19.038;2022-09-09T09:10:26;4.40;;;3.72;;
19189;SDS011;9727;50.200;19.038;2022-09-09T09:13:16;5.95;;;3.65;;
19189;SDS011;9727;50.200;19.038;2022-09-09T09:15:46;3.85;;;3.45;;
19189;SDS011;9727;50.200;19.038;2022-09-09T09:18:15;3.35;;;3.05;;
19189;SDS011;9727;50.200;19.038;2022-09-09T09:20:44;3.58;;;2.85;;
19189;SDS011;9727;50.200;19.038;2022-09-09T09:23:15;3.47;;;2.65;;
19189;SDS011;9727;50.200;19.038;2022-09-09T09:25:42;3.38;;;2.60;;
19189;SDS011;9727;50.200;19.038;2022-09-09T09:28:17;5.72;;;2.97;;
19189;SDS011;9727;50.200;19.038;2022-09-09T09:30:47;4.25;;;2.10;;
19189;SDS011;9727;50.200;19.038;2022-09-09T09:33:17;3.13;;;2.30;;
19189;SDS011;9727;50.200;19.038;2022-09-09T09:35:44;3.40;;;2.10;;
19189;SDS011;9727;50.200;19.038;2022-09-09T09:38:16;4.13;;;2.03;;
19189;SDS011;9727;50.200;19.038;2022-09-09T09:40:53;3.78;;;2.40;;
19189;SDS011;9727;50.200;19.038;2022-09-09T09:43:26;6.22;;;2.20;;
19189;SDS011;9727;50.200;19.038;2022-09-09T09:45:55;2.08;;;1.77;;
19189;SDS011;9727;50.200;19.038;2022-09-09T09:48:22;3.05;;;2.10;;
19189;SDS011;9727;50.200;19.038;2022-09-09T09:50:50;5.30;;;2.10;;
19189;SDS011;9727;50.200;19.038;2022-09-09T09:53:19;3.63;;;2.20;;
19189;SDS011;9727;50.200;19.038;2022-09-09T09:55:48;3.35;;;2.00;;
19189;SDS011;9727;50.200;19.038;2022-09-09T09:58:16;3.75;;;2.28;;
19189;SDS011;9727;50.200;19.038;2022-09-09T10:00:48;3.30;;;1.83;;
19189;SDS011;9727;50.200;19.038;2022-09-09T10:03:22;2.90;;;1.80;;
19189;SDS011;9727;50.200;19.038;2022-09-09T10:05:48;3.92;;;1.98;;
19189;SDS011;9727;50.200;19.038;2022-09-09T10:08:16;5.82;;;2.20;;
19189;SDS011;9727;50.200;19.038;2022-09-09T10:10:47;3.92;;;1.90;;
19189;SDS011;9727;50.200;19.038;2022-09-09T10:13:18;5.22;;;1.98;;
19189;SDS011;9727;50.200;19.038;2022-09-09T10:15:52;4.35;;;2.10;;
19189;SDS011;9727;50.200;19.038;2022-09-09T10:18:25;4.00;;;1.92;;
19189;SDS011;9727;50.200;19.038;2022-09-09T10:20:59;4.03;;;2.13;;
19189;SDS011;9727;50.200;19.038;2022-09-09T10:23:31;2.60;;;2.40;;
19189;SDS011;9727;50.200;19.038;2022-09-09T10:26:08;4.18;;;2.53;;
19189;SDS011;9727;50.200;19.038;2022-09-09T10:28:57;3.10;;;2.10;;
19189;SDS011;9727;50.200;19.038;2022-09-09T10:31:30;4.28;;;2.10;;
19189;SDS011;9727;50.200;19.038;2022-09-09T10:34:02;3.10;;;2.13;;
19189;SDS011;9727;50.200;19.038;2022-09-09T10:36:32;2.55;;;2.00;;
19189;SDS011;9727;50.200;19.038;2022-09-09T10:38:59;3.78;;;2.00;;
19189;SDS011;9727;50.200;19.038;2022-09-09T10:41:33;5.07;;;1.83;;
19189;SDS011;9727;50.200;19.038;2022-09-09T10:44:09;3.83;;;2.08;;
19189;SDS011;9727;50.200;19.038;2022-09-09T10:46:43;3.25;;;1.65;;
19189;SDS011;9727;50.200;19.038;2022-09-09T10:49:17;3.35;;;2.10;;
19189;SDS011;9727;50.200;19.038;2022-09-09T10:51:50;4.32;;;2.20;;
19189;SDS011;9727;50.200;19.038;2022-09-09T10:54:24;3.72;;;2.00;;
19189;SDS011;9727;50.200;19.038;2022-09-09T10:57:03;5.75;;;1.73;;
19189;SDS011;9727;50.200;19.038;2022-09-09T10:59:31;4.20;;;1.65;;
19189;SDS011;9727;50.200;19.038;2022-09-09T11:02:02;2.33;;;1.73;;
19189;SDS011;9727;50.200;19.038;2022-09-09T11:04:34;2.72;;;1.60;;
19189;SDS011;9727;50.200;19.038;2022-09-09T11:07:04;3.17;;;1.65;;
19189;SDS011;9727;50.200;19.038;2022-09-09T11:09:35;4.07;;;1.77;;
19189;SDS011;9727;50.200;19.038;2022-09-09T11:12:03;2.88;;;1.63;;
19189;SDS011;9727;50.200;19.038;2022-09-09T11:14:32;3.05;;;1.80;;
19189;SDS011;9727;50.200;19.038;2022-09-09T11:17:03;2.97;;;1.80;;
19189;SDS011;9727;50.200;19.038;2022-09-09T11:19:32;2.45;;;2.00;;
19189;SDS011;9727;50.200;19.038;2022-09-09T11:22:00;4.35;;;1.83;;
19189;SDS011;9727;50.200;19.038;2022-09-09T11:24:29;2.08;;;1.48;;
19189;SDS011;9727;50.200;19.038;2022-09-09T11:26:58;3.63;;;1.83;;
19189;SDS011;9727;50.200;19.038;2022-09-09T11:29:38;4.00;;;1.77;;
19189;SDS011;9727;50.200;19.038;2022-09-09T11:32:19;3.45;;;1.95;;
19189;SDS011;9727;50.200;19.038;2022-09-09T11:34:50;7.43;;;1.95;;
19189;SDS011;9727;50.200;19.038;2022-09-09T11:37:33;4.10;;;1.60;;
19189;SDS011;9727;50.200;19.038;2022-09-09T11:40:17;2.70;;;1.73;;
19189;SDS011;9727;50.200;19.038;2022-09-09T11:42:45;5.05;;;1.90;;
19189;SDS011;9727;50.200;19.038;2022-09-09T11:45:19;1.95;;;1.60;;
19189;SDS011;9727;50.200;19.038;2022-09-09T11:47:52;3.83;;;2.00;;
19189;SDS011;9727;50.200;19.038;2022-09-09T11:53:14;2.83;;;1.38;;
19189;SDS011;9727;50.200;19.038;2022-09-09T11:55:42;2.97;;;1.17;;
19189;SDS011;9727;50.200;19.038;2022-09-09T11:58:16;2.05;;;1.00;;
19189;SDS011;9727;50.200;19.038;2022-09-09T12:00:44;2.85;;;1.00;;
19189;SDS011;9727;50.200;19.038;2022-09-09T12:05:54;1.40;;;1.02;;
19189;SDS011;9727;50.200;19.038;2022-09-09T12:08:24;1.38;;;1.00;;
19189;SDS011;9727;50.200;19.038;2022-09-09T12:10:53;3.70;;;1.20;;
19189;SDS011;9727;50.200;19.038;2022-09-09T12:13:20;2.17;;;1.08;;
19189;SDS011;9727;50.200;19.038;2022-09-09T12:15:48;3.67;;;1.10;;
19189;SDS011;9727;50.200;19.038;2022-09-09T12:18:18;4.28;;;1.15;;
19189;SDS011;9727;50.200;19.038;2022-09-09T12:20:51;2.55;;;1.00;;
19189;SDS011;9727;50.200;19.038;2022-09-09T12:23:24;4.45;;;1.38;;
19189;SDS011;9727;50.200;19.038;2022-09-09T12:26:06;2.47;;;1.08;;
19189;SDS011;9727;50.200;19.038;2022-09-09T12:28:46;1.60;;;1.17;;
19189;SDS011;9727;50.200;19.038;2022-09-09T12:31:17;6.43;;;1.27;;
19189;SDS011;9727;50.200;19.038;2022-09-09T12:33:47;2.28;;;1.27;;
19189;SDS011;9727;50.200;19.038;2022-09-09T12:36:18;1.52;;;1.30;;
19189;SDS011;9727;50.200;19.038;2022-09-09T12:38:47;1.92;;;1.23;;
19189;SDS011;9727;50.200;19.038;2022-09-09T12:41:18;1.60;;;1.00;;
19189;SDS011;9727;50.200;19.038;2022-09-09T12:43:49;4.45;;;1.30;;
19189;SDS011;9727;50.200;19.038;2022-09-09T12:46:20;2.65;;;1.23;;
19189;SDS011;9727;50.200;19.038;2022-09-09T12:48:48;2.17;;;1.45;;
19189;SDS011;9727;50.200;19.038;2022-09-09T12:51:18;1.40;;;1.10;;
19189;SDS011;9727;50.200;19.038;2022-09-09T12:53:47;4.35;;;1.30;;
19189;SDS011;9727;50.200;19.038;2022-09-09T12:56:18;2.75;;;1.40;;
19189;SDS011;9727;50.200;19.038;2022-09-09T12:58:46;2.08;;;1.20;;
19189;SDS011;9727;50.200;19.038;2022-09-09T13:01:18;1.30;;;1.20;;
19189;SDS011;9727;50.200;19.038;2022-09-09T13:03:46;2.45;;;1.30;;
19189;SDS011;9727;50.200;19.038;2022-09-09T13:06:16;3.08;;;1.20;;
19189;SDS011;9727;50.200;19.038;2022-09-09T13:08:44;1.80;;;1.20;;
19189;SDS011;9727;50.200;19.038;2022-09-09T13:11:17;2.65;;;1.10;;
19189;SDS011;9727;50.200;19.038;2022-09-09T13:13:49;2.35;;;1.40;;
19189;SDS011;9727;50.200;19.038;2022-09-09T13:16:18;2.38;;;1.20;;
19189;SDS011;9727;50.200;19.038;2022-09-09T13:18:45;2.60;;;1.15;;
19189;SDS011;9727;50.200;19.038;2022-09-09T13:21:12;2.35;;;1.30;;
19189;SDS011;9727;50.200;19.038;2022-09-09T13:23:40;1.30;;;1.20;;
19189;SDS011;9727;50.200;19.038;2022-09-09T13:26:20;1.83;;;1.10;;
19189;SDS011;9727;50.200;19.038;2022-09-09T13:28:50;1.90;;;1.42;;
19189;SDS011;9727;50.200;19.038;2022-09-09T13:31:22;2.95;;;1.33;;
19189;SDS011;9727;50.200;19.038;2022-09-09T13:33:49;1.60;;;1.10;;
19189;SDS011;9727;50.200;19.038;2022-09-09T13:36:15;2.00;;;1.30;;
19189;SDS011;9727;50.200;19.038;2022-09-09T13:38:52;2.55;;;1.63;;
19189;SDS011;9727;50.200;19.038;2022-09-09T13:41:21;2.38;;;1.30;;
19189;SDS011;9727;50.200;19.038;2022-09-09T13:43:48;3.42;;;1.30;;
19189;SDS011;9727;50.200;19.038;2022-09-09T13:46:24;2.97;;;1.30;;
19189;SDS011;9727;50.200;19.038;2022-09-09T13:48:54;4.35;;;1.38;;
19189;SDS011;9727;50.200;19.038;2022-09-09T13:51:26;4.00;;;1.30;;
19189;SDS011;9727;50.200;19.038;2022-09-09T13:53:54;1.92;;;1.25;;
19189;SDS011;9727;50.200;19.038;2022-09-09T13:56:23;1.38;;;1.10;;
19189;SDS011;9727;50.200;19.038;2022-09-09T13:58:49;1.63;;;1.23;;
19189;SDS011;9727;50.200;19.038;2022-09-09T14:01:16;2.38;;;1.30;;
19189;SDS011;9727;50.200;19.038;2022-09-09T14:03:42;1.90;;;1.10;;
19189;SDS011;9727;50.200;19.038;2022-09-09T14:06:09;2.83;;;1.13;;
19189;SDS011;9727;50.200;19.038;2022-09-09T14:08:37;1.92;;;1.15;;
19189;SDS011;9727;50.200;19.038;2022-09-09T14:11:04;3.40;;;1.17;;
19189;SDS011;9727;50.200;19.038;2022-09-09T14:13:32;1.20;;;1.10;;
19189;SDS011;9727;50.200;19.038;2022-09-09T14:15:58;1.50;;;1.40;;
19189;SDS011;9727;50.200;19.038;2022-09-09T14:18:25;1.35;;;0.95;;
19189;SDS011;9727;50.200;19.038;2022-09-09T14:20:51;1.70;;;1.30;;
19189;SDS011;9727;50.200;19.038;2022-09-09T14:23:18;2.67;;;0.95;;
19189;SDS011;9727;50.200;19.038;2022-09-09T14:25:47;2.55;;;1.45;;
19189;SDS011;9727;50.200;19.038;2022-09-09T14:28:17;1.45;;;1.20;;
19189;SDS011;9727;50.200;19.038;2022-09-09T14:30:45;2.00;;;1.30;;
19189;SDS011;9727;50.200;19.038;2022-09-09T14:33:13;1.63;;;1.25;;
19189;SDS011;9727;50.200;19.038;2022-09-09T14:35:42;1.95;;;1.38;;
19189;SDS011;9727;50.200;19.038;2022-09-09T14:38:09;5.78;;;1.50;;
19189;SDS011;9727;50.200;19.038;2022-09-09T14:40:36;1.98;;;1.27;;
19189;SDS011;9727;50.200;19.038;2022-09-09T14:43:03;1.60;;;1.50;;
19189;SDS011;9727;50.200;19.038;2022-09-09T14:45:32;2.72;;;1.52;;
19189;SDS011;9727;50.200;19.038;2022-09-09T14:48:01;2.58;;;1.30;;
19189;SDS011;9727;50.200;19.038;2022-09-09T14:50:31;2.50;;;1.38;;
19189;SDS011;9727;50.200;19.038;2022-09-09T14:52:57;4.20;;;1.50;;
19189;SDS011;9727;50.200;19.038;2022-09-09T14:55:24;2.30;;;1.35;;